Time;durP1;ratioP1;P1;durP2;ratioP2;P2;SDS_P1;SDS_P2;PMS_P1;PMS_P2;Temp;Humidity;BMP_temperature;BMP_pressure;BME280_temperature;BME280_humidity;BME280_pressure;Samples;Min_cycle;Max_cycle;Signal;HPM_P1;HPM_P2
2022/11/08 00:16:02;;;;;;;;;;;;;;;;;;4943078;28;19907;-76
2022/11/08 00:18:48;;;;;;;;;;;;;;;;;;4946848;29;19919;-76
2022/11/08 00:21:35;;;;;;;;;;;;;;;;;;4929832;29;19914;-76
2022/11/08 00:24:27;;;;;;;;;;;;;;;;;;4935757;28;19915;-75
2022/11/08 00:27:13;;;;;;;;;;;;;;;;;;4929334;28;19915;-76
2022/11/08 00:30:00;;;;;;;;;;;;;;;;;;4939013;28;19922;-76
2022/11/08 00:32:46;;;;;;;;;;;;;;;;;;4947888;28;19933;-76
2022/11/08 00:35:33;;;;;;;;;;;;;;;;;;4930142;28;19914;-76
2022/11/08 00:38:19;;;;;;;;;;;;;;;;;;4936040;29;19945;-76
2022/11/08 00:41:06;;;;;;;;;;;;;;;;;;4931432;28;19921;-76
2022/11/08 00:43:52;;;;;;;;;;;;;;;;;;4936820;28;20382;-78
2022/11/08 00:46:40;;;;;;;;;;;;;;;;;;4946731;28;19910;-75
2022/11/08 00:49:26;;;;;;;;;;;;;;;;;;4936611;29;20325;-77
2022/11/08 00:52:13;;;;;;;;;;;;;;;;;;4931157;28;19910;-75
2022/11/08 00:54:59;;;;;;;;;;;;;;;;;;4944387;28;19918;-78
2022/11/08 00:57:48;;;;;;;;;;;;;;;;;;4933593;29;20382;-78
2022/11/08 01:00:40;;;;;;;;;;;;;;;;;;4934896;28;19910;-78
2022/11/08 01:03:32;;;;;;;;;;;;;;;;;;4948679;29;19919;-78
2022/11/08 01:06:21;;;;;;;;;;;;;;;;;;4939566;28;20302;-77
2022/11/08 01:09:18;;;;;;;;;;;;;;;;;;;;;
2022/11/08 01:12:05;;;;;;;;;;;;;;;;;;4950008;28;19922;-77
2022/11/08 01:14:51;;;;;;;;;;;;;;;;;;4933848;29;19922;-77
2022/11/08 01:17:40;;;;;;;;;;;;;;;;;;4926290;28;19910;-76
2022/11/08 01:20:29;;;;;;;;;;;;;;;;;;4929624;29;20297;-77
2022/11/08 01:23:18;;;;;;;;;;;;;;;;;;4936137;28;19922;-78
2022/11/08 01:26:12;;;;;;;;;;;;;;;;;;4949827;28;19911;-78
2022/11/08 01:28:58;;;;;;;;;;;;;;;;;;4948067;28;19910;-78
2022/11/08 01:31:57;;;;;;;;;;;;;;;;;;4927766;29;19916;-78
2022/11/08 01:34:54;;;;;;;;;;;;;;;;;;4933431;29;19930;-78
2022/11/08 01:41:15;;;;;;;;;;;;;;;;;;4941931;28;19918;-77
2022/11/08 01:44:05;;;;;;;;;;;;;;;;;;4945455;28;19910;-76
2022/11/08 01:46:51;;;;;;;;;;;;;;;;;;4953623;28;19914;-74
2022/11/08 01:49:38;;;;;;;;;;;;;;;;;;4935673;29;20370;-74
2022/11/08 01:52:24;;;;;;;;;;;;;;;;;;4935124;28;19910;-75
2022/11/08 01:55:11;;;;;;;;;;;;;;;;;;4935642;28;19911;-75
2022/11/08 01:57:57;;;;;;;;;;;;;;;;;;4942805;28;20272;-75
2022/11/08 02:00:44;;;;;;;;;;;;;;;;;;4922630;28;19918;-75
2022/11/08 02:03:30;;;;;;;;;;;;;;;;;;4945229;28;19938;-76
2022/11/08 02:06:17;;;;;;;;;;;;;;;;;;4947523;28;20378;-76
2022/11/08 02:09:03;;;;;;;;;;;;;;;;;;4945650;28;19914;-76
2022/11/08 02:11:50;;;;;;;;;;;;;;;;;;4949284;28;20445;-76
2022/11/08 02:14:36;;;;;;;;;;;;;;;;;;4947033;28;19973;-76
2022/11/08 02:17:23;;;;;;;;;;;;;;;;;;4949752;28;19914;-76
2022/11/08 02:20:09;;;;;;;;;;;;;;;;;;4948908;29;19920;-77
2022/11/08 02:22:56;;;;;;;;;;;;;;;;;;4948945;29;19919;-76
2022/11/08 02:25:42;;;;;;;;;;;;;;;;;;4946963;28;19915;-76
2022/11/08 02:28:29;;;;;;;;;;;;;;;;;;4947699;29;20381;-77
2022/11/08 02:34:41;;;;;;;;;;;;;;;;;;4895634;29;19923;-76
2022/11/08 02:37:41;;;;;;;;;;;;;;;;;;;;;
2022/11/08 02:40:47;;;;;;;;;;;;;;;;;;4937047;28;19911;-76
2022/11/08 02:47:02;;;;;;;;;;;;;;;;;;4888230;29;19918;-76
2022/11/08 03:08:06;;;;;;;;;;;;;;;;;;4949003;29;20298;-76
2022/11/08 03:10:33;;;;;;;;;;;;;;;;;;4939887;29;19911;-76
2022/11/08 03:13:20;;;;;;;;;;;;;;;;;;4949131;29;20038;-76
2022/11/08 03:16:06;;;;;;;;;;;;;;;;;;4932766;29;19915;-76
2022/11/08 03:18:53;;;;;;;;;;;;;;;;;;4945957;29;19924;-76
2022/11/08 03:21:39;;;;;;;;;;;;;;;;;;4948452;29;19921;-76
2022/11/08 03:24:25;;;;;;;;;;;;;;;;;;4945459;29;19915;-76
2022/11/08 03:27:14;;;;;;;;;;;;;;;;;;4934943;29;19911;-75
2022/11/08 03:30:00;;;;;;;;;;;;;;;;;;4945822;28;20370;-76
2022/11/08 03:32:52;;;;;;;;;;;;;;;;;;4949086;28;19921;-77
2022/11/08 03:35:41;;;;;;;;;;;;;;;;;;4930842;29;20286;-77
2022/11/08 03:38:45;;;;;;;;;;;;;;;;;;4941751;28;20302;-77
2022/11/08 03:42:03;;;;;;;;;;;;;;;;;;;;;
2022/11/08 03:44:40;;;;;;;;;;;;;;;;;;4946643;28;19918;-76
2022/11/08 03:47:27;;;;;;;;;;;;;;;;;;4935819;28;19911;-76
2022/11/08 03:50:16;;;;;;;;;;;;;;;;;;4948091;28;19933;-77
2022/11/08 03:53:18;;;;;;;;;;;;;;;;;;4935878;29;19919;-77
2022/11/08 03:56:07;;;;;;;;;;;;;;;;;;4941007;28;19915;-77
2022/11/08 03:58:53;;;;;;;;;;;;;;;;;;4929304;29;19914;-76
2022/11/08 04:01:40;;;;;;;;;;;;;;;;;;4953346;28;20402;-76
2022/11/08 04:04:26;;;;;;;;;;;;;;;;;;4935866;29;19929;-75
2022/11/08 04:07:13;;;;;;;;;;;;;;;;;;4946142;29;19914;-76
2022/11/08 04:09:59;;;;;;;;;;;;;;;;;;4941301;28;20606;-75
2022/11/08 04:15:55;;;;;;;;;;;;;;;;;;4942097;28;19918;-75
2022/11/08 04:21:47;;;;;;;;;;;;;;;;;;4946184;29;19918;-75
2022/11/08 04:24:33;;;;;;;;;;;;;;;;;;4931611;28;20382;-75
2022/11/08 04:27:20;;;;;;;;;;;;;;;;;;4934812;29;19918;-75
2022/11/08 04:30:19;;;;;;;;;;;;;;;;;;;;;
2022/11/08 04:33:15;;;;;;;;;;;;;;;;;;4939366;28;19923;-75
2022/11/08 04:36:02;;;;;;;;;;;;;;;;;;4929819;29;19923;-76
2022/11/08 04:38:49;;;;;;;;;;;;;;;;;;4948759;29;19937;-76
2022/11/08 04:41:35;;;;;;;;;;;;;;;;;;4946373;28;19911;-76
2022/11/08 04:44:24;;;;;;;;;;;;;;;;;;4935011;28;19925;-77
2022/11/08 04:47:11;;;;;;;;;;;;;;;;;;4939051;29;19918;-75
2022/11/08 04:49:57;;;;;;;;;;;;;;;;;;4932779;29;19918;-75
2022/11/08 04:52:44;;;;;;;;;;;;;;;;;;4946950;28;19933;-75
2022/11/08 04:55:30;;;;;;;;;;;;;;;;;;4937512;28;19923;-75
2022/11/08 04:58:17;;;;;;;;;;;;;;;;;;4942765;28;19926;-74
2022/11/08 05:01:03;;;;;;;;;;;;;;;;;;4943558;28;19918;-76
2022/11/08 05:03:50;;;;;;;;;;;;;;;;;;4929837;28;19910;-75
2022/11/08 05:06:36;;;;;;;;;;;;;;;;;;4941074;28;19922;-75
2022/11/08 05:09:23;;;;;;;;;;;;;;;;;;4946465;28;20282;-75
2022/11/08 05:12:09;;;;;;;;;;;;;;;;;;4942837;28;19916;-76
2022/11/08 05:14:59;;;;;;;;;;;;;;;;;;4928203;29;19923;-75
2022/11/08 05:17:45;;;;;;;;;;;;;;;;;;4928990;28;19911;-76
2022/11/08 05:23:48;;;;;;;;;;;;;;;;;;4945989;28;19914;-77
2022/11/08 05:29:41;;;;;;;;;;;;;;;;;;4950512;23;19922;-75
2022/11/08 05:32:28;;;;;;;;;;;;;;;;;;4911356;29;19924;-74
2022/11/08 05:35:14;;;;;;;;;;;;;;;;;;4900089;29;19927;-75
2022/11/08 05:38:01;;;;;;;;;;;;;;;;;;4907445;29;19923;-74
2022/11/08 05:40:47;;;;;;;;;;;;;;;;;;4915336;29;20264;-75
2022/11/08 05:43:34;;;;;;;;;;;;;;;;;;4904876;29;20624;-74
2022/11/08 05:46:20;;;;;;;;;;;;;;;;;;4910296;29;19915;-74
2022/11/08 05:49:07;;;;;;;;;;;;;;;;;;4913185;29;19919;-74
2022/11/08 05:51:53;;;;;;;;;;;;;;;;;;4907833;29;19919;-74
2022/11/08 05:54:40;;;;;;;;;;;;;;;;;;4901326;29;20341;-75
2022/11/08 05:57:26;;;;;;;;;;;;;;;;;;4903987;29;19919;-74
2022/11/08 06:00:12;;;;;;;;;;;;;;;;;;4902882;29;20292;-74
2022/11/08 06:02:59;;;;;;;;;;;;;;;;;;4891708;29;19918;-74
2022/11/08 06:05:45;;;;;;;;;;;;;;;;;;4912942;29;20324;-73
2022/11/08 06:08:32;;;;;;;;;;;;;;;;;;4907754;29;19923;-74
2022/11/08 06:11:20;;;;;;;;;;;;;;;;;;4906077;29;19911;-73
2022/11/08 06:14:06;;;;;;;;;;;;;;;;;;4908310;29;19935;-74
2022/11/08 06:16:53;;;;;;;;;;;;;;;;;;4898617;29;19918;-75
2022/11/08 06:19:39;;;;;;;;;;;;;;;;;;4897118;29;19911;-74
2022/11/08 06:22:26;;;;;;;;;;;;;;;;;;4908355;29;19911;-73
2022/11/08 06:25:12;;;;;;;;;;;;;;;;;;4903689;29;19915;-75
2022/11/08 06:27:58;;;;;;;;;;;;;;;;;;4893993;29;19927;-75
2022/11/08 06:30:45;;;;;;;;;;;;;;;;;;4910211;29;20283;-75
2022/11/08 06:33:31;;;;;;;;;;;;;;;;;;4910486;29;19930;-74
2022/11/08 06:36:19;;;;;;;;;;;;;;;;;;4913126;29;19931;-75
2022/11/08 06:39:06;;;;;;;;;;;;;;;;;;4889199;29;20560;-75
2022/11/08 06:41:52;;;;;;;;;;;;;;;;;;4904229;29;19919;-76
2022/11/08 06:44:39;;;;;;;;;;;;;;;;;;4897751;29;19917;-75
2022/11/08 06:47:25;;;;;;;;;;;;;;;;;;4907995;29;19912;-75
2022/11/08 06:50:12;;;;;;;;;;;;;;;;;;4911080;29;19922;-76
2022/11/08 06:52:58;;;;;;;;;;;;;;;;;;4906297;29;19911;-76
2022/11/08 06:55:45;;;;;;;;;;;;;;;;;;4910377;29;19926;-75
2022/11/08 06:58:31;;;;;;;;;;;;;;;;;;4904540;29;19946;-75
2022/11/08 07:01:18;;;;;;;;;;;;;;;;;;4914797;29;19915;-75
2022/11/08 07:04:04;;;;;;;;;;;;;;;;;;4909258;29;19915;-75
2022/11/08 07:06:51;;;;;;;;;;;;;;;;;;4908474;29;19915;-75
2022/11/08 07:09:37;;;;;;;;;;;;;;;;;;4911338;29;19951;-75
2022/11/08 07:12:24;;;;;;;;;;;;;;;;;;4905285;29;19915;-76
2022/11/08 07:15:10;;;;;;;;;;;;;;;;;;4914201;29;19934;-76
2022/11/08 07:17:57;;;;;;;;;;;;;;;;;;4902313;29;19926;-76
2022/11/08 07:20:43;;;;;;;;;;;;;;;;;;4903048;29;19915;-76
2022/11/08 07:23:30;;;;;;;;;;;;;;;;;;4904559;29;19938;-75
2022/11/08 07:26:16;;;;;;;;;;;;;;;;;;4899371;29;20603;-75
2022/11/08 07:29:03;;;;;;;;;;;;;;;;;;4905424;29;19915;-74
2022/11/08 07:31:49;;;;;;;;;;;;;;;;;;4903890;29;19949;-75
2022/11/08 07:34:36;;;;;;;;;;;;;;;;;;4904408;29;19930;-76
2022/11/08 07:37:22;;;;;;;;;;;;;;;;;;4900687;29;19978;-75
2022/11/08 07:40:09;;;;;;;;;;;;;;;;;;4902195;29;19919;-77
2022/11/08 07:42:55;;;;;;;;;;;;;;;;;;4905109;29;19922;-75
2022/11/08 07:45:42;;;;;;;;;;;;;;;;;;4897385;29;20450;-76
2022/11/08 07:48:28;;;;;;;;;;;;;;;;;;4909110;29;19916;-75
2022/11/08 07:51:15;;;;;;;;;;;;;;;;;;4911441;29;20464;-75
2022/11/08 07:54:01;;;;;;;;;;;;;;;;;;4907552;29;19931;-76
2022/11/08 07:56:47;;;;;;;;;;;;;;;;;;4904793;29;19935;-75
2022/11/08 07:59:37;;;;;;;;;;;;;;;;;;4892031;29;19923;-77
2022/11/08 08:02:23;;;;;;;;;;;;;;;;;;4914994;29;20122;-76
2022/11/08 08:05:10;;;;;;;;;;;;;;;;;;4902166;29;19934;-77
2022/11/08 08:07:56;;;;;;;;;;;;;;;;;;4900746;29;20288;-77
2022/11/08 08:10:52;;;;;;;;;;;;;;;;;;4903095;29;19915;-77
2022/11/08 08:13:47;;;;;;;;;;;;;;;;;;4899764;29;19922;-78
2022/11/08 08:16:52;;;;;;;;;;;;;;;;;;4905496;29;19919;-76
2022/11/08 08:19:39;;;;;;;;;;;;;;;;;;4900762;29;19915;-78
2022/11/08 08:22:26;;;;;;;;;;;;;;;;;;4901761;29;19915;-75
2022/11/08 08:25:12;;;;;;;;;;;;;;;;;;4896861;29;19915;-77
2022/11/08 08:31:06;;;;;;;;;;;;;;;;;;4904292;29;19934;-75
2022/11/08 08:33:52;;;;;;;;;;;;;;;;;;4896025;29;20394;-75
2022/11/08 08:36:38;;;;;;;;;;;;;;;;;;4899941;29;20032;-76
2022/11/08 08:39:25;;;;;;;;;;;;;;;;;;4904700;29;19934;-76
2022/11/08 08:42:11;;;;;;;;;;;;;;;;;;4894255;29;20106;-75
2022/11/08 08:44:58;;;;;;;;;;;;;;;;;;4890781;29;19920;-75
2022/11/08 08:47:44;;;;;;;;;;;;;;;;;;4896527;29;19919;-76
2022/11/08 08:50:31;;;;;;;;;;;;;;;;;;4911964;29;19919;-76
2022/11/08 08:53:18;;;;;;;;;;;;;;;;;;4901478;29;19923;-75
2022/11/08 08:56:04;;;;;;;;;;;;;;;;;;4897370;29;19931;-76
2022/11/08 08:58:51;;;;;;;;;;;;;;;;;;4897941;29;19934;-76
2022/11/08 09:01:37;;;;;;;;;;;;;;;;;;4914499;29;19921;-76
2022/11/08 09:04:24;;;;;;;;;;;;;;;;;;4896046;29;19980;-75
2022/11/08 09:07:10;;;;;;;;;;;;;;;;;;4912820;29;19923;-74
2022/11/08 09:09:57;;;;;;;;;;;;;;;;;;4895935;29;19915;-75
2022/11/08 09:12:43;;;;;;;;;;;;;;;;;;4911349;29;19911;-75
2022/11/08 09:15:30;;;;;;;;;;;;;;;;;;4916834;29;19958;-76
2022/11/08 09:18:16;;;;;;;;;;;;;;;;;;4908096;29;20280;-75
2022/11/08 09:21:03;;;;;;;;;;;;;;;;;;4906373;29;19915;-76
2022/11/08 09:23:49;;;;;;;;;;;;;;;;;;4903562;29;19922;-76
2022/11/08 09:26:36;;;;;;;;;;;;;;;;;;4898923;29;19915;-76
2022/11/08 09:29:22;;;;;;;;;;;;;;;;;;4912387;29;19926;-76
2022/11/08 09:32:09;;;;;;;;;;;;;;;;;;4889079;29;20407;-76
2022/11/08 09:34:56;;;;;;;;;;;;;;;;;;4906445;29;20221;-77
2022/11/08 09:37:43;;;;;;;;;;;;;;;;;;4911040;29;19916;-77
2022/11/08 09:40:29;;;;;;;;;;;;;;;;;;4904090;29;19912;-76
2022/11/08 09:43:16;;;;;;;;;;;;;;;;;;4911758;29;19921;-77
2022/11/08 09:46:02;;;;;;;;;;;;;;;;;;4906644;29;20287;-77
2022/11/08 09:48:49;;;;;;;;;;;;;;;;;;4902754;29;19955;-77
2022/11/08 09:51:35;;;;;;;;;;;;;;;;;;4907217;29;19912;-76
2022/11/08 09:54:22;;;;;;;;;;;;;;;;;;4906771;29;19923;-76
2022/11/08 09:57:08;;;;;;;;;;;;;;;;;;4901311;29;19918;-76
2022/11/08 09:59:55;;;;;;;;;;;;;;;;;;4905240;29;19932;-77
2022/11/08 10:02:41;;;;;;;;;;;;;;;;;;4911185;29;19928;-77
2022/11/08 10:05:28;;;;;;;;;;;;;;;;;;4910386;29;19920;-77
2022/11/08 10:08:14;;;;;;;;;;;;;;;;;;4910513;29;19915;-77
2022/11/08 10:11:01;;;;;;;;;;;;;;;;;;4917319;29;20287;-77
2022/11/08 10:13:47;;;;;;;;;;;;;;;;;;4910579;29;19919;-77
2022/11/08 10:16:34;;;;;;;;;;;;;;;;;;4908149;29;19923;-74
2022/11/08 10:19:20;;;;;;;;;;;;;;;;;;4893452;29;19923;-76
2022/11/08 10:22:06;;;;;;;;;;;;;;;;;;4912700;29;20247;-75
2022/11/08 10:24:53;;;;;;;;;;;;;;;;;;4912171;29;19915;-75
2022/11/08 10:27:40;;;;;;;;;;;;;;;;;;4898038;29;19917;-76
2022/11/08 10:30:26;;;;;;;;;;;;;;;;;;4902248;29;20430;-76
2022/11/08 10:33:13;;;;;;;;;;;;;;;;;;4901560;29;19916;-76
2022/11/08 10:35:59;;;;;;;;;;;;;;;;;;4894593;29;19930;-76
2022/11/08 10:38:46;;;;;;;;;;;;;;;;;;4911891;29;19911;-75
2022/11/08 10:41:32;;;;;;;;;;;;;;;;;;4911579;29;20324;-76
2022/11/08 10:44:19;;;;;;;;;;;;;;;;;;4915531;29;19916;-76
2022/11/08 10:47:06;;;;;;;;;;;;;;;;;;4898120;29;19922;-75
2022/11/08 10:49:55;;;;;;;;;;;;;;;;;;4909759;29;20294;-76
2022/11/08 10:52:42;;;;;;;;;;;;;;;;;;4898232;29;19925;-75
2022/11/08 10:55:29;;;;;;;;;;;;;;;;;;4891625;29;19930;-75
2022/11/08 10:58:16;;;;;;;;;;;;;;;;;;4889975;29;19950;-75
2022/11/08 11:01:02;;;;;;;;;;;;;;;;;;4908201;29;19918;-75
2022/11/08 11:03:49;;;;;;;;;;;;;;;;;;4912966;29;20275;-76
2022/11/08 11:06:35;;;;;;;;;;;;;;;;;;4914116;29;20367;-76
2022/11/08 11:09:22;;;;;;;;;;;;;;;;;;4883895;29;19919;-75
2022/11/08 11:12:08;;;;;;;;;;;;;;;;;;4893510;29;19916;-76
2022/11/08 11:14:55;;;;;;;;;;;;;;;;;;4915836;29;20335;-76
2022/11/08 11:17:41;;;;;;;;;;;;;;;;;;4899472;29;20671;-77
2022/11/08 11:20:28;;;;;;;;;;;;;;;;;;4910266;29;19922;-74
2022/11/08 11:23:14;;;;;;;;;;;;;;;;;;4913621;29;19916;-75
2022/11/08 11:26:01;;;;;;;;;;;;;;;;;;4896129;29;19912;-76
2022/11/08 11:28:47;;;;;;;;;;;;;;;;;;4899303;29;19911;-75
2022/11/08 11:31:43;;;;;;;;;;;;;;;;;;4890692;29;19937;-83
2022/11/08 12:02:56;;;;;;;;;;;;;;;;;;4833096;29;19913;-77
2022/11/08 12:16:05;;;;;;;;;;;;;;;;;;;;;
2022/11/08 12:34:20;;;;;;;;;;;;;;;;;;;;;
2022/11/08 13:30:36;;;;;;;;;;;;;;;;;;;;;
2022/11/08 13:36:29;;;;;;;;;;;;;;;;;;4906352;29;19930;-77
2022/11/08 13:39:15;;;;;;;;;;;;;;;;;;4915036;29;20383;-77
2022/11/08 13:42:02;;;;;;;;;;;;;;;;;;4897712;29;19916;-77
2022/11/08 13:44:48;;;;;;;;;;;;;;;;;;4908754;29;19918;-77
2022/11/08 13:47:38;;;;;;;;;;;;;;;;;;4892862;29;19918;-77
2022/11/08 13:50:25;;;;;;;;;;;;;;;;;;4909803;29;20386;-77
2022/11/08 13:53:11;;;;;;;;;;;;;;;;;;4912315;29;19919;-77
2022/11/08 13:55:58;;;;;;;;;;;;;;;;;;4909777;29;19943;-77
2022/11/08 13:58:44;;;;;;;;;;;;;;;;;;4913540;29;20287;-77
2022/11/08 14:01:31;;;;;;;;;;;;;;;;;;4913330;29;19915;-77
2022/11/08 14:04:17;;;;;;;;;;;;;;;;;;4871885;29;19949;-77
2022/11/08 14:07:04;;;;;;;;;;;;;;;;;;4894720;29;19919;-78
2022/11/08 14:09:50;;;;;;;;;;;;;;;;;;4894674;29;20279;-76
2022/11/08 14:12:37;;;;;;;;;;;;;;;;;;4887737;29;19923;-77
2022/11/08 14:15:23;;;;;;;;;;;;;;;;;;4894792;29;20368;-77
2022/11/08 14:18:10;;;;;;;;;;;;;;;;;;4896454;29;19922;-77
2022/11/08 14:20:56;;;;;;;;;;;;;;;;;;4880382;29;20220;-77
2022/11/08 14:23:43;;;;;;;;;;;;;;;;;;4890495;29;19935;-76
2022/11/08 14:26:30;;;;;;;;;;;;;;;;;;4893749;29;19954;-77
2022/11/08 14:29:17;;;;;;;;;;;;;;;;;;4878159;29;19921;-77
2022/11/08 14:32:03;;;;;;;;;;;;;;;;;;4892065;29;20283;-76
2022/11/08 14:34:50;;;;;;;;;;;;;;;;;;4894240;29;19919;-76
2022/11/08 14:37:36;;;;;;;;;;;;;;;;;;4887058;29;19919;-75
2022/11/08 14:40:23;;;;;;;;;;;;;;;;;;4881323;29;19915;-75
2022/11/08 14:43:09;;;;;;;;;;;;;;;;;;4893318;29;19916;-76
2022/11/08 14:45:58;;;;;;;;;;;;;;;;;;4891512;29;19930;-75
2022/11/08 14:48:45;;;;;;;;;;;;;;;;;;4890511;29;19911;-75
2022/11/08 14:51:31;;;;;;;;;;;;;;;;;;4874877;29;20466;-76
2022/11/08 14:54:18;;;;;;;;;;;;;;;;;;4891255;29;19934;-75
2022/11/08 14:57:04;;;;;;;;;;;;;;;;;;4888846;29;20534;-76
2022/11/08 14:59:51;;;;;;;;;;;;;;;;;;4882727;29;19915;-75
2022/11/08 15:02:37;;;;;;;;;;;;;;;;;;4889482;29;19949;-76
2022/11/08 15:05:24;;;;;;;;;;;;;;;;;;4895569;29;19920;-76
2022/11/08 15:08:11;;;;;;;;;;;;;;;;;;4900569;29;20323;-75
2022/11/08 15:10:57;;;;;;;;;;;;;;;;;;4900894;29;19915;-75
2022/11/08 15:13:44;;;;;;;;;;;;;;;;;;4910934;29;20407;-74
2022/11/08 15:16:30;;;;;;;;;;;;;;;;;;4899698;29;19926;-75
2022/11/08 15:19:17;;;;;;;;;;;;;;;;;;4912811;29;19922;-75
2022/11/08 15:22:04;;;;;;;;;;;;;;;;;;4895350;29;19911;-75
2022/11/08 15:24:50;;;;;;;;;;;;;;;;;;4892986;29;20319;-75
2022/11/08 15:27:37;;;;;;;;;;;;;;;;;;4914812;29;19915;-75
2022/11/08 15:30:23;;;;;;;;;;;;;;;;;;4911696;29;19915;-77
2022/11/08 15:33:10;;;;;;;;;;;;;;;;;;4897174;29;19911;-75
2022/11/08 15:35:56;;;;;;;;;;;;;;;;;;4898327;29;20418;-76
2022/11/08 15:38:43;;;;;;;;;;;;;;;;;;4911140;29;19917;-75
2022/11/08 15:41:29;;;;;;;;;;;;;;;;;;4889823;29;19922;-75
2022/11/08 15:44:16;;;;;;;;;;;;;;;;;;4906108;29;20389;-75
2022/11/08 15:47:02;;;;;;;;;;;;;;;;;;4902679;29;19915;-75
2022/11/08 15:49:51;;;;;;;;;;;;;;;;;;4901814;29;21243;-75
2022/11/08 15:52:37;;;;;;;;;;;;;;;;;;4915797;29;19922;-75
2022/11/08 15:55:24;;;;;;;;;;;;;;;;;;4908399;29;19923;-75
2022/11/08 15:58:10;;;;;;;;;;;;;;;;;;4894135;29;19915;-75
2022/11/08 16:00:57;;;;;;;;;;;;;;;;;;4895787;29;19919;-75
2022/11/08 16:03:43;;;;;;;;;;;;;;;;;;4908824;29;20371;-75
2022/11/08 16:06:30;;;;;;;;;;;;;;;;;;4889770;29;19919;-75
2022/11/08 16:09:16;;;;;;;;;;;;;;;;;;4898547;29;19919;-77
2022/11/08 16:12:02;;;;;;;;;;;;;;;;;;4895305;29;19915;-76
2022/11/08 16:14:50;;;;;;;;;;;;;;;;;;4899174;29;20580;-76
2022/11/08 16:17:37;;;;;;;;;;;;;;;;;;4894012;29;19929;-76
2022/11/08 16:20:24;;;;;;;;;;;;;;;;;;4897231;29;19919;-76
2022/11/08 16:23:10;;;;;;;;;;;;;;;;;;4910548;29;19911;-76
2022/11/08 16:25:59;;;;;;;;;;;;;;;;;;4901269;29;19919;-77
2022/11/08 16:28:45;;;;;;;;;;;;;;;;;;4905550;29;20842;-76
2022/11/08 16:31:32;;;;;;;;;;;;;;;;;;4894845;29;19921;-76
2022/11/08 16:34:18;;;;;;;;;;;;;;;;;;4891161;29;20020;-76
2022/11/08 16:37:05;;;;;;;;;;;;;;;;;;4896372;29;19942;-77
2022/11/08 16:39:51;;;;;;;;;;;;;;;;;;4891600;29;19921;-76
2022/11/08 16:42:38;;;;;;;;;;;;;;;;;;4905655;29;20016;-77
2022/11/08 16:45:24;;;;;;;;;;;;;;;;;;4887458;29;20357;-76
2022/11/08 16:48:11;;;;;;;;;;;;;;;;;;4897965;29;19915;-76
2022/11/08 16:50:57;;;;;;;;;;;;;;;;;;4889390;29;20528;-76
2022/11/08 16:53:44;;;;;;;;;;;;;;;;;;4901938;29;20450;-76
2022/11/08 16:56:30;;;;;;;;;;;;;;;;;;4891418;29;20525;-75
2022/11/08 16:59:17;;;;;;;;;;;;;;;;;;4903140;29;19916;-77
2022/11/08 17:02:03;;;;;;;;;;;;;;;;;;4884572;29;19941;-76
2022/11/08 17:04:50;;;;;;;;;;;;;;;;;;4893741;29;19946;-77
2022/11/08 17:07:36;;;;;;;;;;;;;;;;;;4887007;29;19926;-77
2022/11/08 17:10:23;;;;;;;;;;;;;;;;;;4902256;29;20406;-76
2022/11/08 17:13:09;;;;;;;;;;;;;;;;;;4904261;29;19926;-77
2022/11/08 17:15:56;;;;;;;;;;;;;;;;;;4899318;29;19933;-75
2022/11/08 17:18:42;;;;;;;;;;;;;;;;;;4908318;29;19915;-76
2022/11/08 17:21:29;;;;;;;;;;;;;;;;;;4895654;29;19922;-77
2022/11/08 17:24:15;;;;;;;;;;;;;;;;;;4905820;29;19917;-76
2022/11/08 17:27:02;;;;;;;;;;;;;;;;;;4888065;29;19919;-76
2022/11/08 17:29:48;;;;;;;;;;;;;;;;;;4896740;29;20379;-76
2022/11/08 17:32:34;;;;;;;;;;;;;;;;;;4900065;29;19922;-76
2022/11/08 17:35:21;;;;;;;;;;;;;;;;;;4894628;29;20012;-76
2022/11/08 17:38:07;;;;;;;;;;;;;;;;;;4901299;29;20447;-75
2022/11/08 17:40:54;;;;;;;;;;;;;;;;;;4900872;29;19918;-75
2022/11/08 17:43:40;;;;;;;;;;;;;;;;;;4908724;29;20276;-76
2022/11/08 17:46:27;;;;;;;;;;;;;;;;;;4909796;29;19919;-76
2022/11/08 17:49:13;;;;;;;;;;;;;;;;;;4906493;29;20338;-77
2022/11/08 17:52:00;;;;;;;;;;;;;;;;;;4908664;29;19915;-77
2022/11/08 17:54:46;;;;;;;;;;;;;;;;;;4899352;29;19919;-75
2022/11/08 17:57:33;;;;;;;;;;;;;;;;;;4894250;29;19926;-77
2022/11/08 18:00:19;;;;;;;;;;;;;;;;;;4896752;29;19917;-78
2022/11/08 18:03:08;;;;;;;;;;;;;;;;;;4897630;29;20886;-77
2022/11/08 18:05:55;;;;;;;;;;;;;;;;;;4889965;29;20349;-74
2022/11/08 18:08:41;;;;;;;;;;;;;;;;;;4908671;29;19921;-75
2022/11/08 18:11:28;;;;;;;;;;;;;;;;;;4907371;29;20590;-75
2022/11/08 18:14:14;;;;;;;;;;;;;;;;;;4888878;29;19915;-75
2022/11/08 18:17:01;;;;;;;;;;;;;;;;;;4893647;29;19937;-75
2022/11/08 18:19:47;;;;;;;;;;;;;;;;;;4910834;29;19912;-75
2022/11/08 18:22:34;;;;;;;;;;;;;;;;;;4906411;29;19911;-75
2022/11/08 18:25:20;;;;;;;;;;;;;;;;;;4899811;29;19917;-75
2022/11/08 18:28:07;;;;;;;;;;;;;;;;;;4897329;29;19919;-76
2022/11/08 18:30:53;;;;;;;;;;;;;;;;;;4909639;29;19911;-76
2022/11/08 18:33:39;;;;;;;;;;;;;;;;;;4906929;29;20261;-76
2022/11/08 18:36:26;;;;;;;;;;;;;;;;;;4906705;29;19927;-76
2022/11/08 18:39:12;;;;;;;;;;;;;;;;;;4907238;29;19937;-76
2022/11/08 18:41:59;;;;;;;;;;;;;;;;;;4908163;29;19915;-76
2022/11/08 18:44:45;;;;;;;;;;;;;;;;;;4907412;29;19911;-75
2022/11/08 18:47:32;;;;;;;;;;;;;;;;;;4893014;29;20287;-75
2022/11/08 18:50:18;;;;;;;;;;;;;;;;;;4906177;29;19916;-75
2022/11/08 18:53:07;;;;;;;;;;;;;;;;;;4895674;29;19911;-75
2022/11/08 18:55:53;;;;;;;;;;;;;;;;;;4893555;29;19919;-75
2022/11/08 18:58:40;;;;;;;;;;;;;;;;;;4892212;29;19919;-76
2022/11/08 19:01:26;;;;;;;;;;;;;;;;;;4896848;29;19934;-76
2022/11/08 19:04:13;;;;;;;;;;;;;;;;;;4894295;29;19945;-76
2022/11/08 19:06:59;;;;;;;;;;;;;;;;;;4890258;29;19915;-74
2022/11/08 19:09:46;;;;;;;;;;;;;;;;;;4900022;29;19922;-75
2022/11/08 19:12:32;;;;;;;;;;;;;;;;;;4903415;29;20338;-76
2022/11/08 19:15:21;;;;;;;;;;;;;;;;;;4899050;29;19919;-75
2022/11/08 19:18:07;;;;;;;;;;;;;;;;;;4908797;29;19919;-75
2022/11/08 19:20:54;;;;;;;;;;;;;;;;;;4890442;29;20317;-75
2022/11/08 19:23:41;;;;;;;;;;;;;;;;;;4905504;29;19912;-75
2022/11/08 19:26:28;;;;;;;;;;;;;;;;;;4896005;29;19919;-75
2022/11/08 19:29:14;;;;;;;;;;;;;;;;;;4906285;29;19915;-75
2022/11/08 19:32:01;;;;;;;;;;;;;;;;;;4906582;29;19926;-76
2022/11/08 19:34:48;;;;;;;;;;;;;;;;;;4903095;29;19943;-75
2022/11/08 19:37:35;;;;;;;;;;;;;;;;;;4909276;29;20281;-76
2022/11/08 19:40:21;;;;;;;;;;;;;;;;;;4894050;29;19934;-76
2022/11/08 19:43:08;;;;;;;;;;;;;;;;;;4899374;29;19915;-74
2022/11/08 19:45:55;;;;;;;;;;;;;;;;;;4902024;29;19918;-76
2022/11/08 19:48:42;;;;;;;;;;;;;;;;;;4901344;29;20492;-76
2022/11/08 19:51:28;;;;;;;;;;;;;;;;;;4901650;29;19918;-75
2022/11/08 19:54:15;;;;;;;;;;;;;;;;;;4906817;29;19927;-75
2022/11/08 19:57:01;;;;;;;;;;;;;;;;;;4900018;29;19923;-75
2022/11/08 19:59:50;;;;;;;;;;;;;;;;;;4900020;29;19915;-75
2022/11/08 20:02:36;;;;;;;;;;;;;;;;;;4890879;29;19938;-75
2022/11/08 20:05:23;;;;;;;;;;;;;;;;;;4897879;29;20480;-75
2022/11/08 20:08:09;;;;;;;;;;;;;;;;;;4904195;29;19930;-75
2022/11/08 20:10:56;;;;;;;;;;;;;;;;;;4899900;29;19939;-75
2022/11/08 20:13:42;;;;;;;;;;;;;;;;;;4901364;29;19931;-76
2022/11/08 20:16:29;;;;;;;;;;;;;;;;;;4907010;29;19923;-76
2022/11/08 20:19:16;;;;;;;;;;;;;;;;;;4907454;29;19930;-76
2022/11/08 20:22:03;;;;;;;;;;;;;;;;;;4907930;29;19919;-75
2022/11/08 20:24:49;;;;;;;;;;;;;;;;;;4906964;29;20394;-75
2022/11/08 20:27:36;;;;;;;;;;;;;;;;;;4894356;29;19919;-76
2022/11/08 20:30:22;;;;;;;;;;;;;;;;;;4908807;29;20659;-76
2022/11/08 20:33:08;;;;;;;;;;;;;;;;;;4908221;29;19911;-77
2022/11/08 20:35:57;;;;;;;;;;;;;;;;;;4911657;29;20299;-77
2022/11/08 20:38:46;;;;;;;;;;;;;;;;;;4903851;29;19939;-77
2022/11/08 20:41:33;;;;;;;;;;;;;;;;;;4890776;29;19919;-77
2022/11/08 20:44:21;;;;;;;;;;;;;;;;;;4903986;29;19919;-77
2022/11/08 20:47:08;;;;;;;;;;;;;;;;;;4888641;29;20374;-77
2022/11/08 20:49:54;;;;;;;;;;;;;;;;;;4914513;29;19922;-76
2022/11/08 20:52:40;;;;;;;;;;;;;;;;;;4916324;29;19919;-75
2022/11/08 20:55:28;;;;;;;;;;;;;;;;;;4911081;29;19950;-75
2022/11/08 20:58:14;;;;;;;;;;;;;;;;;;4912891;29;19922;-75
2022/11/08 21:01:01;;;;;;;;;;;;;;;;;;4917560;29;19942;-76
2022/11/08 21:03:47;;;;;;;;;;;;;;;;;;4907018;29;19938;-77
2022/11/08 21:06:34;;;;;;;;;;;;;;;;;;4910846;29;19915;-76
2022/11/08 21:09:20;;;;;;;;;;;;;;;;;;4913901;29;19922;-77
2022/11/08 21:12:07;;;;;;;;;;;;;;;;;;4908742;29;19930;-77
2022/11/08 21:14:53;;;;;;;;;;;;;;;;;;4908390;29;20363;-76
2022/11/08 21:17:39;;;;;;;;;;;;;;;;;;4907881;29;19958;-76
2022/11/08 21:20:27;;;;;;;;;;;;;;;;;;4912548;29;19925;-76
2022/11/08 21:23:13;;;;;;;;;;;;;;;;;;4905587;29;19911;-76
2022/11/08 21:25:59;;;;;;;;;;;;;;;;;;4909302;29;19922;-76
2022/11/08 21:28:46;;;;;;;;;;;;;;;;;;4911790;29;19911;-76
2022/11/08 21:31:32;;;;;;;;;;;;;;;;;;4896749;29;20555;-76
2022/11/08 21:34:19;;;;;;;;;;;;;;;;;;4916699;29;19921;-76
2022/11/08 21:37:08;;;;;;;;;;;;;;;;;;4924221;29;19919;-73
2022/11/08 21:39:55;;;;;;;;;;;;;;;;;;4916107;29;19911;-74
2022/11/08 21:42:41;;;;;;;;;;;;;;;;;;4893674;29;19918;-73
2022/11/08 21:45:28;;;;;;;;;;;;;;;;;;4912855;29;19926;-74
2022/11/08 21:48:14;;;;;;;;;;;;;;;;;;4909305;29;19918;-74
2022/11/08 21:51:02;;;;;;;;;;;;;;;;;;4909923;29;19918;-74
2022/11/08 21:53:48;;;;;;;;;;;;;;;;;;4898346;29;19919;-75
2022/11/08 21:56:35;;;;;;;;;;;;;;;;;;4904968;29;19934;-75